Gilmour, Indiana
Current Conditions -  °F | °C
As of 2:53 PM on Thursday 29 Jan 2015 (Local Time) from KHUF Reporting Station
Overcast Overcast  
Wind Chill: 26°   Ceiling: 1600
Heat Index: 36°   Visibility: 7mi
Dew Point: 30°   Wind: 18mph
Humidity: 79%   Direction: 300°WNW
Pressure: 30.04"   Gusts: 25mph
Location:  39.2016°N, 87.1874°W
Report Text: KHUF 291953Z 30016G22KT 7SM OVC016 02/M01 A3004 RMK AO2 SLP174 T00221011
Loading
Personal Weather Stations






























Interactive Weather Map New forecast layout! Learn more

10-Day Weather Forecast

Advertisements
Track Severe Weather on mobile